Time;durP1;ratioP1;P1;durP2;ratioP2;P2;SDS_P1;SDS_P2;PMS_P1;PMS_P2;Temp;Humidity;BMP_temperature;BMP_pressure;BME280_temperature;BME280_humidity;BME280_pressure;Samples;Min_cycle;Max_cycle;Signal;HPM_P1;HPM_P2
2024/03/30 00:01:59;;;;;;;2.40;1.37;;;12.80;1.00;;;;;;5015859;28;20183;-82
2024/03/30 00:04:28;;;;;;;3.60;1.60;;;12.90;1.00;;;;;;5018647;28;20648;-82
2024/03/30 00:06:54;;;;;;;2.30;1.20;;;12.90;1.00;;;;;;5023558;28;20169;-82
2024/03/30 00:09:19;;;;;;;2.37;1.30;;;12.90;1.00;;;;;;5021079;28;20295;-84
2024/03/30 00:11:45;;;;;;;1.67;1.20;;;12.80;1.00;;;;;;5020255;28;20201;-83
2024/03/30 00:14:10;;;;;;;3.27;1.20;;;12.70;1.00;;;;;;5020776;28;20190;-83
2024/03/30 00:16:37;;;;;;;2.07;1.20;;;12.80;1.00;;;;;;5021743;28;20661;-82
2024/03/30 00:19:04;;;;;;;1.53;1.07;;;12.90;1.00;;;;;;5021723;28;20195;-83
2024/03/30 00:21:29;;;;;;;1.30;0.73;;;12.90;1.00;;;;;;5021284;28;20174;-83
2024/03/30 00:23:55;;;;;;;1.73;1.10;;;12.90;1.00;;;;;;5020983;28;20477;-84
2024/03/30 00:26:23;;;;;;;2.43;1.10;;;12.90;1.00;;;;;;5022201;28;20658;-84
2024/03/30 00:28:49;;;;;;;2.60;1.37;;;12.90;1.00;;;;;;5021166;28;20957;-84
2024/03/30 00:31:14;;;;;;;2.63;1.17;;;13.00;1.00;;;;;;5020010;28;20173;-83
2024/03/30 00:33:40;;;;;;;1.63;0.80;;;12.90;1.00;;;;;;5021395;28;20173;-83
2024/03/30 00:36:06;;;;;;;2.70;1.07;;;13.00;1.00;;;;;;5019361;28;20661;-83
2024/03/30 00:38:32;;;;;;;2.10;0.73;;;13.10;1.00;;;;;;5018296;28;20188;-83
2024/03/30 00:40:57;;;;;;;1.90;1.03;;;13.00;1.00;;;;;;5016765;28;20275;-83
2024/03/30 00:43:23;;;;;;;2.83;1.10;;;13.00;1.00;;;;;;5017817;28;20185;-83
2024/03/30 00:45:48;;;;;;;2.43;1.00;;;13.00;1.00;;;;;;5019978;28;20166;-83
2024/03/30 00:48:16;;;;;;;2.07;1.00;;;12.80;1.00;;;;;;5018040;28;20359;-83
2024/03/30 00:50:46;;;;;;;1.30;0.80;;;12.90;1.00;;;;;;5018472;28;20656;-82
2024/03/30 00:53:12;;;;;;;1.73;0.93;;;13.00;1.00;;;;;;5020987;28;20181;-82
2024/03/30 00:55:37;;;;;;;1.77;1.10;;;13.00;1.00;;;;;;5018786;28;20184;-83
2024/03/30 00:58:03;;;;;;;2.10;0.87;;;12.90;1.00;;;;;;5020644;28;20192;-84
2024/03/30 01:00:29;;;;;;;2.43;0.90;;;13.00;1.00;;;;;;5020224;28;20184;-82
2024/03/30 01:02:55;;;;;;;2.17;1.10;;;12.90;1.00;;;;;;5020074;28;20271;-83
2024/03/30 01:05:20;;;;;;;2.10;1.00;;;12.70;1.00;;;;;;5022031;28;20230;-83
2024/03/30 01:07:48;;;;;;;2.77;0.87;;;12.70;1.00;;;;;;5021517;28;20219;-83
2024/03/30 01:10:14;;;;;;;2.10;0.80;;;12.60;1.00;;;;;;5019829;28;20178;-83
2024/03/30 01:12:40;;;;;;;2.67;0.97;;;12.40;1.00;;;;;;5019716;28;20204;-84
2024/03/30 01:15:07;;;;;;;2.30;0.70;;;12.10;1.00;;;;;;5019881;28;20265;-83
2024/03/30 01:17:36;;;;;;;2.33;0.80;;;11.90;1.00;;;;;;5020280;28;20181;-83
2024/03/30 01:20:05;;;;;;;1.67;1.03;;;11.90;1.00;;;;;;5019549;28;20646;-82
2024/03/30 01:22:33;;;;;;;1.50;0.90;;;11.90;4.40;;;;;;5018689;28;20528;-83
2024/03/30 01:24:58;;;;;;;2.03;0.80;;;11.80;9.00;;;;;;5025326;28;20170;-82
2024/03/30 01:27:26;;;;;;;1.00;0.70;;;11.80;15.10;;;;;;5033512;28;20553;-82
2024/03/30 01:30:00;;;;;;;1.27;0.70;;;11.90;17.80;;;;;;5036069;28;20174;-83
2024/03/30 01:32:26;;;;;;;2.50;1.00;;;12.00;14.50;;;;;;5035973;28;20537;-83
2024/03/30 01:34:52;;;;;;;2.33;1.00;;;12.00;15.70;;;;;;5034991;28;20181;-83
2024/03/30 01:37:18;;;;;;;1.70;1.00;;;12.00;17.10;;;;;;5036969;28;20159;-84
2024/03/30 01:39:44;;;;;;;2.80;1.50;;;12.20;13.70;;;;;;5035958;28;20173;-82
2024/03/30 01:42:09;;;;;;;3.60;1.77;;;12.20;10.10;;;;;;5035761;28;20202;-82
2024/03/30 01:44:35;;;;;;;2.77;1.40;;;12.10;18.70;;;;;;5035671;28;20643;-83
2024/03/30 01:47:01;;;;;;;2.13;1.30;;;12.10;21.80;;;;;;5069148;28;20624;-82
2024/03/30 01:49:28;;;;;;;2.57;1.10;;;12.10;23.70;;;;;;5068973;28;20250;-81
2024/03/30 01:51:54;;;;;;;2.23;1.47;;;12.20;22.50;;;;;;5036935;28;20171;-83
2024/03/30 01:54:20;;;;;;;2.87;1.40;;;12.20;21.00;;;;;;5035960;28;20182;-83
2024/03/30 01:56:49;;;;;;;3.70;1.40;;;12.40;17.10;;;;;;5036206;28;20172;-82
2024/03/30 01:59:15;;;;;;;2.73;1.50;;;12.30;17.70;;;;;;5034836;28;20311;-82
2024/03/30 02:01:46;;;;;;;3.10;1.40;;;12.40;17.50;;;;;;5036278;28;20249;-83
2024/03/30 02:04:14;;;;;;;2.77;1.27;;;12.40;18.10;;;;;;5035052;28;20552;-82
2024/03/30 02:06:41;;;;;;;2.57;1.60;;;12.40;21.20;;;;;;5034871;28;20213;-83
2024/03/30 02:09:10;;;;;;;2.40;1.37;;;12.50;18.70;;;;;;5035514;28;20253;-83
2024/03/30 02:11:37;;;;;;;1.57;1.00;;;12.50;14.80;;;;;;5034631;28;20202;-83
2024/03/30 02:14:02;;;;;;;4.43;1.63;;;12.60;14.80;;;;;;5033534;28;20270;-82
2024/03/30 02:16:29;;;;;;;3.70;1.67;;;12.60;13.40;;;;;;5035716;28;20215;-82
2024/03/30 02:18:55;;;;;;;5.43;3.40;;;12.60;10.10;;;;;;5035027;28;20317;-82
2024/03/30 02:21:21;;;;;;;11.10;6.60;;;12.70;7.40;;;;;;5034410;28;20270;-83
2024/03/30 02:23:46;;;;;;;5.33;2.63;;;12.60;5.40;;;;;;5033339;28;20271;-82
2024/03/30 02:26:12;;;;;;;7.67;4.30;;;12.60;1.00;;;;;;5033394;28;20210;-82
2024/03/30 02:28:38;;;;;;;6.73;3.10;;;12.60;1.00;;;;;;5033642;28;20705;-82
2024/03/30 02:31:04;;;;;;;5.67;2.87;;;12.60;1.00;;;;;;5033239;28;20179;-81
2024/03/30 02:33:31;;;;;;;4.00;2.50;;;12.60;2.60;;;;;;5033202;28;20263;-81
2024/03/30 02:35:58;;;;;;;5.13;2.97;;;12.60;5.70;;;;;;5067702;28;20173;-82
2024/03/30 02:38:23;;;;;;;7.20;3.47;;;12.60;7.70;;;;;;5067514;28;20195;-82
2024/03/30 02:40:52;;;;;;;5.93;3.70;;;12.60;9.40;;;;;;5035284;28;20636;-83
2024/03/30 02:43:18;;;;;;;8.17;3.60;;;12.50;13.80;;;;;;5033359;28;20546;-82
2024/03/30 02:45:44;;;;;;;5.83;3.37;;;12.50;17.70;;;;;;5034335;28;20174;-82
2024/03/30 02:48:09;;;;;;;8.57;3.67;;;12.50;18.80;;;;;;5033791;28;20221;-81
2024/03/30 02:50:35;;;;;;;5.47;2.73;;;12.50;17.80;;;;;;5034528;28;20222;-82
2024/03/30 02:53:01;;;;;;;4.37;2.10;;;12.60;17.60;;;;;;5033797;28;20639;-82
2024/03/30 02:55:26;;;;;;;4.00;2.20;;;12.50;15.50;;;;;;5033754;28;20204;-82
2024/03/30 02:57:52;;;;;;;3.10;1.87;;;12.60;15.40;;;;;;5034253;28;20629;-82
2024/03/30 03:00:18;;;;;;;3.03;1.40;;;12.60;13.00;;;;;;5067936;28;20263;-83
2024/03/30 03:02:43;;;;;;;3.13;1.23;;;12.50;14.30;;;;;;5035324;28;20669;-81
2024/03/30 03:05:10;;;;;;;2.10;1.00;;;12.60;10.80;;;;;;5066212;28;20645;-82
2024/03/30 03:07:36;;;;;;;2.20;0.93;;;12.50;7.00;;;;;;5034386;28;20214;-82
2024/03/30 03:10:02;;;;;;;2.17;1.07;;;12.60;2.70;;;;;;5035025;28;20551;-83
2024/03/30 03:12:27;;;;;;;1.77;1.20;;;12.60;1.00;;;;;;5033413;28;20196;-83
2024/03/30 03:14:53;;;;;;;1.70;1.00;;;12.60;1.00;;;;;;5034311;28;20193;-84
2024/03/30 03:17:19;;;;;;;3.23;1.10;;;12.60;1.00;;;;;;5035390;28;20168;-82
2024/03/30 03:19:45;;;;;;;2.37;1.00;;;12.60;1.00;;;;;;5033386;28;20178;-81
2024/03/30 03:22:10;;;;;;;5.13;1.40;;;12.40;1.00;;;;;;5033202;28;20168;-83
2024/03/30 03:24:38;;;;;;;2.67;1.37;;;12.10;1.00;;;;;;5033033;28;20705;-83
2024/03/30 03:27:04;;;;;;;3.07;1.10;;;12.10;4.80;;;;;;5031355;28;20265;-84
2024/03/30 03:29:29;;;;;;;2.27;1.30;;;12.20;3.70;;;;;;5044689;28;20241;-82
2024/03/30 03:31:55;;;;;;;2.87;1.30;;;12.10;1.00;;;;;;5053298;28;20173;-82
2024/03/30 03:34:21;;;;;;;3.70;1.33;;;11.90;4.70;;;;;;5045623;28;20189;-82
2024/03/30 03:36:46;;;;;;;2.57;1.57;;;11.70;14.00;;;;;;5083177;28;20182;-82
2024/03/30 03:39:13;;;;;;;2.40;1.27;;;11.60;24.20;;;;;;5034738;28;20186;-82
2024/03/30 03:41:39;;;;;;;3.97;1.30;;;11.60;29.90;;;;;;5033690;28;20219;-82
2024/03/30 03:44:04;;;;;;;0.67;0.60;;;11.50;30.10;;;;;;5033386;28;20181;-81
2024/03/30 03:46:31;;;;;;;1.20;0.80;;;11.40;29.00;;;;;;5033540;28;20185;-83
2024/03/30 03:48:57;;;;;;;1.27;0.60;;;11.20;35.80;;;;;;5033987;28;20263;-82
2024/03/30 03:51:22;;;;;;;1.40;0.77;;;11.30;37.80;;;;;;5033553;28;20162;-83
2024/03/30 03:53:48;;;;;;;2.23;0.87;;;11.40;33.80;;;;;;5033272;28;20529;-83
2024/03/30 03:56:14;;;;;;;1.73;1.00;;;11.50;30.90;;;;;;5034083;28;20177;-83
2024/03/30 03:58:39;;;;;;;1.50;1.00;;;11.50;36.90;;;;;;5033247;28;20173;-83
2024/03/30 04:01:06;;;;;;;1.73;0.90;;;11.60;37.80;;;;;;5033291;28;20188;-83
2024/03/30 04:03:32;;;;;;;1.47;1.00;;;11.50;35.00;;;;;;5032539;28;20205;-82
2024/03/30 04:06:10;;;;;;;1.17;0.77;;;11.30;49.60;;;;;;5033635;28;20679;-83
2024/03/30 04:08:36;;;;;;;2.33;1.40;;;11.00;68.20;;;;;;5033881;28;20209;-84
2024/03/30 04:11:03;;;;;;;1.80;1.23;;;10.90;81.00;;;;;;5066630;28;20182;-84
2024/03/30 04:13:29;;;;;;;2.93;1.47;;;10.90;91.00;;;;;;5033126;28;20239;-83
2024/03/30 04:15:55;;;;;;;3.57;1.30;;;10.90;91.90;;;;;;5033248;28;20648;-83
2024/03/30 04:18:21;;;;;;;2.53;1.73;;;11.10;87.00;;;;;;5033831;28;20252;-82
2024/03/30 04:21:00;;;;;;;2.67;1.60;;;11.10;83.00;;;;;;5032519;28;20660;-83
2024/03/30 04:23:31;;;;;;;3.10;1.70;;;11.20;78.90;;;;;;5031893;28;20174;-84
2024/03/30 04:26:10;;;;;;;1.90;1.00;;;11.10;87.70;;;;;;5034089;28;20230;-83
2024/03/30 04:28:37;;;;;;;1.90;1.00;;;10.80;97.10;;;;;;5032409;28;20247;-82
2024/03/30 04:31:04;;;;;;;2.70;1.27;;;10.60;99.90;;;;;;5033095;28;20184;-83
2024/03/30 04:33:31;;;;;;;1.70;1.03;;;10.50;99.90;;;;;;5065797;28;20169;-81
2024/03/30 04:36:05;;;;;;;2.67;1.40;;;10.40;99.90;;;;;;5033150;28;20158;-84
2024/03/30 04:38:33;;;;;;;3.90;1.60;;;10.30;99.90;;;;;;5032244;28;20307;-83
2024/03/30 04:40:58;;;;;;;1.77;1.20;;;10.20;99.90;;;;;;5032553;28;20169;-82
2024/03/30 04:43:25;;;;;;;2.67;1.40;;;10.10;99.90;;;;;;5032461;28;20193;-83
2024/03/30 04:45:50;;;;;;;3.17;1.93;;;10.00;99.90;;;;;;5034038;28;20162;-83
2024/03/30 04:48:18;;;;;;;4.73;2.73;;;9.90;99.90;;;;;;5032905;28;20214;-83
2024/03/30 04:50:44;;;;;;;4.87;2.83;;;10.00;99.90;;;;;;5033662;28;20178;-83
2024/03/30 04:53:12;;;;;;;5.73;3.50;;;9.90;99.90;;;;;;5032294;28;20170;-83
2024/03/30 04:55:37;;;;;;;5.03;3.70;;;9.90;99.90;;;;;;5031224;28;20275;-83
2024/03/30 04:58:03;;;;;;;4.70;3.43;;;9.90;99.90;;;;;;5035066;28;20533;-82
2024/03/30 05:00:29;;;;;;;4.70;3.60;;;10.00;99.90;;;;;;5036779;28;20174;-83
2024/03/30 05:02:54;;;;;;;4.33;3.80;;;9.90;99.90;;;;;;5023465;28;20190;-83
2024/03/30 05:05:20;;;;;;;5.00;4.40;;;9.90;99.90;;;;;;5060772;28;22061;-82
2024/03/30 05:07:49;;;;;;;5.10;4.60;;;9.90;99.90;;;;;;5020539;28;20197;-83
2024/03/30 05:10:15;;;;;;;5.37;3.93;;;9.90;99.90;;;;;;5047372;28;20210;-83
2024/03/30 05:12:41;;;;;;;4.57;3.63;;;9.90;99.90;;;;;;5017756;28;20702;-83
2024/03/30 05:15:08;;;;;;;4.67;3.70;;;9.90;99.90;;;;;;5019206;28;20301;-82
2024/03/30 05:17:34;;;;;;;5.87;3.87;;;9.80;99.90;;;;;;5050243;28;20688;-83
2024/03/30 05:22:44;;;;;;;5.00;4.00;;;9.80;99.90;;;;;;5017882;28;20184;-83
2024/03/30 05:25:09;;;;;;;6.20;4.07;;;9.90;99.90;;;;;;5054068;28;20276;-82
2024/03/30 05:27:35;;;;;;;7.27;4.53;;;9.90;99.90;;;;;;5013932;28;20638;-83
2024/03/30 05:30:02;;;;;;;6.53;4.73;;;9.80;99.90;;;;;;5017181;28;20402;-84
2024/03/30 05:32:28;;;;;;;6.00;4.53;;;9.80;99.90;;;;;;5013682;28;20202;-82
2024/03/30 05:34:54;;;;;;;6.40;4.60;;;9.90;99.90;;;;;;5012923;28;20175;-82
2024/03/30 05:37:21;;;;;;;5.53;4.07;;;9.80;99.90;;;;;;5014688;28;20626;-81
2024/03/30 05:39:47;;;;;;;6.60;5.10;;;9.80;99.90;;;;;;5014219;28;20181;-81
2024/03/30 05:42:13;;;;;;;6.03;4.37;;;9.80;99.90;;;;;;5014458;28;20638;-82
2024/03/30 05:44:39;;;;;;;5.00;4.13;;;9.80;99.90;;;;;;5015216;28;20538;-83
2024/03/30 05:47:04;;;;;;;5.53;4.57;;;9.80;99.90;;;;;;5015727;28;20741;-83
2024/03/30 05:49:30;;;;;;;7.30;4.73;;;9.70;99.90;;;;;;5016233;28;20283;-83
2024/03/30 05:51:56;;;;;;;5.20;4.70;;;9.70;99.90;;;;;;5015641;28;20167;-83
2024/03/30 05:54:21;;;;;;;5.13;4.57;;;9.70;99.90;;;;;;5014303;28;20654;-83
2024/03/30 05:56:47;;;;;;;6.97;5.07;;;9.80;99.90;;;;;;5015803;28;20174;-83
2024/03/30 05:59:12;;;;;;;6.37;5.60;;;9.90;99.90;;;;;;5014274;28;20611;-83
2024/03/30 06:01:38;;;;;;;6.20;5.60;;;9.90;99.90;;;;;;5015111;28;20590;-85
2024/03/30 06:04:04;;;;;;;7.30;5.33;;;9.90;99.90;;;;;;5015939;28;20197;-84
2024/03/30 06:06:30;;;;;;;5.97;5.00;;;9.90;99.90;;;;;;5015075;28;20523;-83
2024/03/30 06:08:55;;;;;;;6.93;6.00;;;9.80;99.90;;;;;;5014156;28;20566;-84
2024/03/30 06:11:21;;;;;;;5.70;5.10;;;9.80;99.90;;;;;;5015496;28;20286;-84
2024/03/30 06:13:47;;;;;;;6.23;4.67;;;9.80;99.90;;;;;;5014977;28;20277;-83
2024/03/30 06:16:12;;;;;;;7.67;4.40;;;9.80;99.90;;;;;;5014613;28;20178;-83
2024/03/30 06:18:38;;;;;;;5.57;4.27;;;9.80;99.90;;;;;;5015216;28;20175;-83
2024/03/30 06:21:04;;;;;;;5.23;4.07;;;9.80;99.90;;;;;;5016168;28;20625;-83
2024/03/30 06:23:30;;;;;;;5.57;4.23;;;9.70;99.90;;;;;;5014417;28;20171;-83
2024/03/30 06:25:55;;;;;;;5.63;4.43;;;9.70;99.90;;;;;;5014748;28;20205;-83
2024/03/30 06:28:21;;;;;;;5.00;3.83;;;9.70;99.90;;;;;;5014782;28;20705;-83
2024/03/30 06:30:47;;;;;;;6.80;4.70;;;9.70;99.90;;;;;;5012601;28;20173;-82
2024/03/30 06:33:12;;;;;;;5.63;4.13;;;9.80;99.90;;;;;;5014287;28;20209;-82
2024/03/30 06:35:38;;;;;;;4.90;3.97;;;9.70;99.90;;;;;;5013792;28;20173;-83
2024/03/30 06:38:04;;;;;;;6.37;4.27;;;9.70;99.90;;;;;;5014186;28;20174;-84
2024/03/30 06:46:00;;;;;;;9.23;5.57;;;9.70;99.90;;;;;;5014437;28;20181;-83
2024/03/30 06:48:26;;;;;;;5.83;5.23;;;9.80;99.90;;;;;;5020703;28;20221;-81
2024/03/30 06:50:51;;;;;;;7.50;6.10;;;9.80;99.90;;;;;;5037102;28;20179;-81
2024/03/30 06:53:17;;;;;;;6.90;4.97;;;9.90;99.90;;;;;;5035705;28;20218;-82
2024/03/30 06:55:42;;;;;;;7.80;6.17;;;9.80;99.90;;;;;;5038226;28;20174;-84
2024/03/30 06:58:08;;;;;;;8.00;6.20;;;9.80;99.90;;;;;;5018055;28;20615;-83
2024/03/30 07:00:36;;;;;;;7.60;5.70;;;9.90;99.90;;;;;;5014698;28;20232;-82
2024/03/30 07:03:08;;;;;;;7.57;6.10;;;9.80;99.90;;;;;;5047116;28;20252;-83
2024/03/30 07:05:34;;;;;;;7.63;5.57;;;10.00;99.90;;;;;;5015710;28;20162;-83
2024/03/30 07:08:01;;;;;;;7.03;6.13;;;10.00;99.90;;;;;;5013200;28;20198;-83
2024/03/30 07:10:26;;;;;;;6.17;5.47;;;10.00;99.90;;;;;;5047147;28;20173;-83
2024/03/30 07:12:54;;;;;;;6.33;5.20;;;9.90;99.90;;;;;;5047087;28;20194;-82
2024/03/30 07:15:23;;;;;;;7.53;6.03;;;9.90;99.90;;;;;;5015554;28;20185;-83
2024/03/30 07:17:49;;;;;;;6.50;5.80;;;10.00;99.90;;;;;;5013602;28;20478;-82
2024/03/30 07:20:15;;;;;;;7.30;5.90;;;10.10;99.90;;;;;;5012759;28;20178;-83
2024/03/30 07:22:41;;;;;;;5.87;5.03;;;10.30;99.90;;;;;;5014165;28;20171;-82
2024/03/30 07:25:07;;;;;;;4.53;3.40;;;10.30;99.90;;;;;;5013456;28;20231;-83
2024/03/30 07:27:33;;;;;;;4.70;3.57;;;10.10;99.90;;;;;;5014121;28;20249;-82
2024/03/30 07:30:00;;;;;;;4.40;3.77;;;10.00;99.90;;;;;;5046127;28;20201;-83
2024/03/30 07:32:25;;;;;;;4.47;3.80;;;10.00;99.90;;;;;;5046143;28;20174;-84
2024/03/30 07:34:52;;;;;;;5.53;3.67;;;10.00;99.90;;;;;;5046248;28;20189;-83
2024/03/30 07:37:18;;;;;;;5.03;4.53;;;9.80;99.90;;;;;;5046515;28;20186;-83
2024/03/30 07:39:45;;;;;;;4.30;3.77;;;9.80;99.90;;;;;;5014897;28;20229;-82
2024/03/30 07:42:11;;;;;;;4.07;3.10;;;9.80;99.90;;;;;;5013952;28;20175;-85
2024/03/30 07:44:37;;;;;;;4.27;3.67;;;9.80;99.90;;;;;;5046313;28;20273;-84
2024/03/30 07:47:07;;;;;;;6.37;3.70;;;9.70;99.90;;;;;;5046786;28;20607;-84
2024/03/30 07:49:33;;;;;;;4.97;4.07;;;9.70;99.90;;;;;;5011682;28;20220;-84
2024/03/30 07:52:01;;;;;;;5.17;4.67;;;9.70;99.90;;;;;;5012340;28;20701;-83
2024/03/30 07:54:27;;;;;;;6.33;5.30;;;9.80;99.90;;;;;;5045469;28;20256;-83
2024/03/30 07:57:00;;;;;;;6.43;5.60;;;9.70;99.90;;;;;;5044775;28;20654;-82
2024/03/30 07:59:27;;;;;;;6.43;5.30;;;9.70;99.90;;;;;;5045835;28;20206;-82
2024/03/30 08:01:53;;;;;;;7.80;6.40;;;9.70;99.90;;;;;;5013190;28;20174;-83
2024/03/30 08:04:20;;;;;;;7.60;6.57;;;9.70;99.90;;;;;;5045697;28;20275;-82
2024/03/30 08:06:52;;;;;;;7.40;6.13;;;9.70;99.90;;;;;;5044397;28;20224;-83
2024/03/30 08:09:21;;;;;;;8.10;6.60;;;9.70;99.90;;;;;;5044663;28;20201;-84
2024/03/30 08:11:48;;;;;;;7.23;6.50;;;9.60;99.90;;;;;;5045333;28;20550;-84
2024/03/30 08:14:16;;;;;;;7.70;6.53;;;9.80;99.90;;;;;;5047244;28;20189;-83
2024/03/30 08:16:44;;;;;;;7.33;6.37;;;9.70;99.90;;;;;;5045242;28;20231;-84
2024/03/30 08:19:10;;;;;;;7.87;6.20;;;9.70;99.90;;;;;;5045337;28;20592;-83
2024/03/30 08:21:39;;;;;;;7.13;5.87;;;9.80;99.90;;;;;;5045192;28;20178;-83
2024/03/30 08:24:05;;;;;;;6.63;5.93;;;9.80;99.90;;;;;;5012073;28;20638;-84
2024/03/30 08:26:31;;;;;;;7.87;6.43;;;9.90;99.90;;;;;;5045800;28;20177;-82
2024/03/30 08:28:57;;;;;;;7.97;7.17;;;9.90;99.90;;;;;;5045564;28;20214;-83
2024/03/30 08:31:22;;;;;;;7.70;6.90;;;10.00;99.90;;;;;;5016136;28;20580;-84
2024/03/30 08:33:50;;;;;;;7.60;6.47;;;9.90;99.90;;;;;;5051159;28;20170;-83
2024/03/30 08:36:16;;;;;;;8.30;6.90;;;9.90;99.90;;;;;;5017138;28;20677;-85
2024/03/30 08:38:42;;;;;;;7.30;6.60;;;10.00;99.90;;;;;;5015483;28;20614;-84
2024/03/30 08:41:08;;;;;;;8.17;7.17;;;10.10;99.90;;;;;;5018268;28;20166;-85
2024/03/30 08:43:34;;;;;;;7.90;7.03;;;10.20;99.90;;;;;;5017948;28;20676;-82
2024/03/30 08:46:02;;;;;;;7.53;6.73;;;10.20;99.90;;;;;;5017929;28;20206;-83
2024/03/30 08:48:28;;;;;;;6.97;6.27;;;10.00;99.90;;;;;;5016350;28;20230;-83
2024/03/30 08:50:54;;;;;;;7.60;6.80;;;10.00;99.90;;;;;;5015830;28;20523;-83
2024/03/30 08:53:20;;;;;;;7.53;6.73;;;10.00;99.90;;;;;;5018002;28;20305;-82
2024/03/30 08:55:46;;;;;;;8.53;6.97;;;10.10;99.90;;;;;;5015609;28;20174;-84
2024/03/30 08:58:11;;;;;;;7.37;6.63;;;10.10;99.90;;;;;;5017135;28;20193;-83
2024/03/30 09:00:38;;;;;;;8.07;7.27;;;9.90;99.90;;;;;;5016587;28;20167;-82
2024/03/30 09:03:04;;;;;;;8.57;7.23;;;10.00;99.90;;;;;;5014878;28;20205;-83
2024/03/30 09:05:33;;;;;;;8.00;7.20;;;10.10;99.90;;;;;;5015306;28;20217;-82
2024/03/30 09:08:05;;;;;;;8.23;6.87;;;10.10;99.90;;;;;;5015844;28;20213;-82
2024/03/30 09:10:31;;;;;;;7.67;6.50;;;10.10;99.90;;;;;;5014527;28;20273;-83
2024/03/30 09:12:56;;;;;;;9.20;7.50;;;10.20;99.90;;;;;;5016596;28;20248;-83
2024/03/30 09:15:23;;;;;;;8.37;7.53;;;10.20;99.90;;;;;;5015285;28;20715;-82
2024/03/30 09:17:51;;;;;;;10.03;9.03;;;10.30;99.90;;;;;;5015841;28;20272;-85
2024/03/30 09:20:17;;;;;;;10.07;9.07;;;10.30;99.90;;;;;;5015359;28;20551;-83
2024/03/30 09:22:49;;;;;;;11.07;10.03;;;10.40;99.90;;;;;;5015476;28;20690;-84
2024/03/30 09:25:14;;;;;;;10.37;9.27;;;10.30;99.90;;;;;;5016463;28;20162;-84
2024/03/30 09:27:43;;;;;;;11.23;10.10;;;10.30;99.90;;;;;;5014637;28;20251;-85
2024/03/30 09:30:11;;;;;;;11.13;9.93;;;10.40;99.90;;;;;;5018573;28;20186;-82
2024/03/30 09:32:41;;;;;;;11.37;9.97;;;10.20;99.90;;;;;;5015297;28;20166;-83
2024/03/30 09:35:11;;;;;;;9.80;8.30;;;10.40;99.90;;;;;;5015845;28;20174;-83
2024/03/30 09:37:37;;;;;;;9.13;8.23;;;10.50;99.90;;;;;;5014537;28;20166;-83
2024/03/30 09:40:04;;;;;;;9.43;8.43;;;10.60;99.90;;;;;;5015322;28;20182;-85
2024/03/30 09:42:37;;;;;;;9.07;7.17;;;10.70;99.90;;;;;;5014611;28;20248;-84
2024/03/30 09:45:05;;;;;;;7.33;6.63;;;10.80;99.90;;;;;;5015285;28;20599;-85
2024/03/30 09:47:32;;;;;;;7.97;7.17;;;10.80;99.90;;;;;;5015687;28;20214;-84
2024/03/30 09:50:02;;;;;;;8.27;7.40;;;10.70;99.90;;;;;;5015000;28;20734;-83
2024/03/30 09:52:29;;;;;;;8.80;7.80;;;10.90;99.90;;;;;;5015105;28;20174;-84
2024/03/30 09:55:08;;;;;;;9.00;7.37;;;10.90;99.90;;;;;;5014869;28;20205;-84
2024/03/30 09:57:37;;;;;;;7.60;6.87;;;11.00;99.90;;;;;;5015229;28;20166;-84
2024/03/30 10:00:03;;;;;;;7.70;6.90;;;11.10;99.90;;;;;;5015189;28;20183;-84
2024/03/30 10:02:29;;;;;;;7.70;7.00;;;11.20;99.90;;;;;;5015376;28;20194;-83
2024/03/30 10:04:56;;;;;;;7.80;6.87;;;11.20;99.90;;;;;;5015530;28;20189;-84
2024/03/30 10:07:28;;;;;;;6.27;5.63;;;11.30;99.90;;;;;;5015538;28;20184;-84
2024/03/30 10:10:12;;;;;;;7.77;6.37;;;11.40;99.90;;;;;;5015524;28;20552;-84
2024/03/30 10:13:01;;;;;;;6.13;5.53;;;11.30;99.90;;;;;;5015395;28;20202;-85
2024/03/30 10:15:52;;;;;;;7.70;6.07;;;11.40;99.90;;;;;;5014178;28;20289;-84
2024/03/30 10:18:19;;;;;;;8.27;6.30;;;11.40;99.90;;;;;;5032991;28;20210;-83
2024/03/30 10:20:44;;;;;;;6.97;6.27;;;11.50;99.90;;;;;;5031376;28;20179;-84
2024/03/30 10:23:10;;;;;;;7.30;6.60;;;11.50;99.90;;;;;;5017505;28;20536;-84
2024/03/30 10:25:36;;;;;;;6.30;5.70;;;11.50;99.90;;;;;;5026975;28;20229;-84
2024/03/30 10:28:10;;;;;;;6.60;6.00;;;11.60;99.90;;;;;;5016356;28;20296;-84
2024/03/30 10:30:36;;;;;;;7.73;6.83;;;11.60;99.90;;;;;;5016485;28;20174;-84
2024/03/30 10:33:11;;;;;;;7.47;6.77;;;11.70;99.90;;;;;;5015466;28;20182;-84
2024/03/30 10:35:36;;;;;;;5.90;5.30;;;11.80;99.90;;;;;;5014981;28;20224;-84
2024/03/30 10:38:02;;;;;;;6.07;5.47;;;11.50;99.90;;;;;;4995999;28;20187;-82
2024/03/30 10:40:29;;;;;;;6.10;5.50;;;11.50;99.90;;;;;;5012940;28;20197;-85
2024/03/30 10:42:57;;;;;;;6.70;6.10;;;11.40;99.90;;;;;;5013050;28;20586;-84
2024/03/30 10:45:25;;;;;;;5.90;5.13;;;11.40;99.90;;;;;;5044564;28;20185;-85
2024/03/30 10:47:57;;;;;;;5.93;5.37;;;11.30;99.90;;;;;;5045243;28;20547;-85
2024/03/30 10:50:27;;;;;;;6.73;5.57;;;11.10;99.90;;;;;;5012013;28;20186;-83
2024/03/30 10:52:53;;;;;;;5.87;5.27;;;11.00;99.90;;;;;;5011421;28;20185;-85
2024/03/30 10:55:19;;;;;;;8.97;6.20;;;11.00;99.90;;;;;;5011765;28;20202;-85
2024/03/30 10:57:45;;;;;;;7.17;6.47;;;11.00;99.90;;;;;;5043357;28;20214;-85
2024/03/30 11:00:15;;;;;;;7.43;6.73;;;11.10;99.90;;;;;;5043512;28;20177;-83
2024/03/30 11:02:42;;;;;;;6.57;5.97;;;11.10;99.90;;;;;;5044041;28;20213;-85
2024/03/30 11:05:08;;;;;;;6.47;5.87;;;11.20;99.90;;;;;;5044349;28;20369;-82
2024/03/30 11:07:37;;;;;;;5.37;4.87;;;11.30;99.90;;;;;;5011462;28;20213;-82
2024/03/30 11:10:06;;;;;;;5.33;4.83;;;11.20;99.90;;;;;;5045269;28;20253;-83
2024/03/30 11:12:33;;;;;;;5.37;4.60;;;11.10;99.90;;;;;;5011629;28;20198;-83
2024/03/30 11:14:59;;;;;;;3.63;3.30;;;11.20;99.90;;;;;;5044050;28;20182;-82
2024/03/30 11:17:31;;;;;;;4.27;3.63;;;11.10;99.90;;;;;;5009459;28;20180;-83
2024/03/30 11:20:24;;;;;;;4.67;3.77;;;11.20;99.90;;;;;;5044015;28;20182;-89
2024/03/30 11:23:26;;;;;;;4.13;3.57;;;11.20;99.90;;;;;;5011419;28;20280;-87
2024/03/30 11:26:04;;;;;;;3.60;2.73;;;11.00;99.90;;;;;;5012341;28;20956;-89
2024/03/30 11:28:50;;;;;;;4.03;3.13;;;10.90;99.90;;;;;;5043909;28;20207;-86
2024/03/30 11:31:36;;;;;;;3.93;3.53;;;10.90;99.90;;;;;;5041526;28;20202;-86
2024/03/30 11:34:04;;;;;;;2.53;2.10;;;10.90;99.90;;;;;;5043057;28;20182;-85
2024/03/30 11:36:44;;;;;;;2.53;2.03;;;10.80;99.90;;;;;;5045007;28;20197;-85
2024/03/30 11:39:31;;;;;;;3.57;2.60;;;10.70;99.90;;;;;;5043117;28;20185;-87
2024/03/30 11:42:10;;;;;;;3.70;2.43;;;10.60;99.90;;;;;;5010490;28;20595;-85
2024/03/30 11:44:37;;;;;;;3.50;2.70;;;10.60;99.90;;;;;;5042994;28;20182;-85
2024/03/30 11:47:03;;;;;;;3.83;2.90;;;10.60;99.90;;;;;;5043002;28;20197;-85
2024/03/30 11:49:29;;;;;;;2.93;2.53;;;10.60;99.90;;;;;;5010228;28;20585;-83
2024/03/30 11:51:59;;;;;;;3.67;2.80;;;10.70;99.90;;;;;;5043157;28;20178;-87
2024/03/30 11:54:26;;;;;;;3.03;2.63;;;10.60;99.90;;;;;;5045133;28;20523;-88
2024/03/30 11:57:12;;;;;;;3.87;3.00;;;10.60;99.90;;;;;;5044334;28;20185;-87
2024/03/30 11:59:39;;;;;;;4.80;3.80;;;10.70;99.90;;;;;;5042557;28;20186;-86
2024/03/30 12:02:15;;;;;;;3.80;3.40;;;10.70;99.90;;;;;;5042235;28;20174;-87
2024/03/30 12:04:45;;;;;;;4.53;4.13;;;10.80;99.90;;;;;;5007708;28;20241;-83
2024/03/30 12:07:13;;;;;;;4.13;3.73;;;10.80;99.90;;;;;;5041150;28;20259;-84
2024/03/30 12:09:40;;;;;;;4.90;4.27;;;10.80;99.90;;;;;;5040219;28;20210;-85
2024/03/30 12:12:23;;;;;;;7.77;5.50;;;10.80;99.90;;;;;;5041793;28;20352;-85
2024/03/30 12:14:51;;;;;;;5.37;4.40;;;10.80;99.90;;;;;;5009120;28;20201;-84
2024/03/30 12:17:20;;;;;;;4.80;4.20;;;10.80;99.90;;;;;;5044213;28;20491;-86
2024/03/30 12:19:48;;;;;;;4.93;4.20;;;10.80;99.90;;;;;;5009545;28;20236;-86
2024/03/30 12:22:14;;;;;;;5.33;4.67;;;10.70;99.90;;;;;;5041999;28;20178;-85
2024/03/30 12:24:41;;;;;;;5.47;4.07;;;10.80;99.90;;;;;;5009076;28;20221;-85
2024/03/30 12:27:07;;;;;;;5.20;3.70;;;10.80;99.90;;;;;;5041736;28;20182;-85
2024/03/30 12:29:33;;;;;;;4.87;4.23;;;10.80;99.90;;;;;;5041163;28;20206;-83
2024/03/30 12:32:02;;;;;;;5.43;3.40;;;10.90;99.90;;;;;;5042070;28;20593;-83
2024/03/30 12:34:59;;;;;;;;;;;;;;;;;;;;;
2024/03/30 12:37:19;;;;;;;3.50;3.03;;;11.10;99.90;;;;;;5011774;28;20626;-86
2024/03/30 12:39:45;;;;;;;5.93;2.97;;;11.10;99.90;;;;;;5042643;28;20221;-87
2024/03/30 12:42:11;;;;;;;3.00;2.40;;;11.10;99.90;;;;;;5044061;28;20174;-89
2024/03/30 12:44:37;;;;;;;3.23;2.50;;;11.10;99.90;;;;;;5041418;28;20182;-84
2024/03/30 12:47:02;;;;;;;4.20;2.90;;;11.10;99.90;;;;;;5010444;28;20649;-85
2024/03/30 12:49:32;;;;;;;3.07;2.73;;;11.20;99.90;;;;;;5043402;28;20210;-85
2024/03/30 12:51:58;;;;;;;3.50;2.73;;;11.10;99.90;;;;;;5011915;28;20178;-86
2024/03/30 12:54:25;;;;;;;3.87;2.97;;;10.90;99.90;;;;;;5042328;28;20204;-85
2024/03/30 12:56:51;;;;;;;5.20;3.43;;;10.90;99.90;;;;;;5010791;28;20225;-87
2024/03/30 12:59:20;;;;;;;5.00;3.77;;;10.90;99.90;;;;;;5042377;28;20619;-85
2024/03/30 13:01:46;;;;;;;6.20;4.53;;;11.00;99.90;;;;;;5011060;28;20178;-85
2024/03/30 13:04:18;;;;;;;5.57;4.30;;;11.00;99.90;;;;;;5040851;28;20566;-87